Colchester

*Note: All times are displayed in the local standard time of the station location.
**Rain - Equipment is designed to accurately record liquid precipitation; under conditions when precipitation is not in liquid form, the data displayed may not properly reflect rainfall values.

Date Max Temp
(°C)
Min Temp
(°C)
Avg Temp
(°C)
Rain (mm) Avg RH (%)
Thu, Nov 15, 2018 2.2 -2.8 0.7 0.0 91.6
Wed, Nov 14, 2018 -0.7 -8.4 -3.8 0.0 73.8
Tue, Nov 13, 2018 1.5 -4.0 -0.6 0.0 83.3
Mon, Nov 12, 2018 4.0 -3.0 1.5 0.0 86.9
Sun, Nov 11, 2018 3.6 -1.1 1.2 0.0 71.4
Sat, Nov 10, 2018 0.9 -4.5 -1.2 0.0 82.3
Fri, Nov 09, 2018 4.2 -0.8 2.4 0.0 89.8
DateTime Avg Temp (°C) Rain (mm) RH (%)
Fri, Nov 16, 2018 08:00 0.3 0.0 93.5
Fri, Nov 16, 2018 07:00 0.5 0.0 97.0
Fri, Nov 16, 2018 06:00 0.2 0.0 99.8
Fri, Nov 16, 2018 05:00 0.6 0.0 98.0
Fri, Nov 16, 2018 04:00 0.6 0.0 97.5
Fri, Nov 16, 2018 03:00 0.5 0.0 98.3
Fri, Nov 16, 2018 02:00 0.7 0.0 99.0
Fri, Nov 16, 2018 01:00 0.8 0.0 99.3
Fri, Nov 16, 2018 00:00 1.0 0.0 100.0
Thu, Nov 15, 2018 23:00 1.4 0.0 100.0
Thu, Nov 15, 2018 22:00 1.5 0.0 100.0
Thu, Nov 15, 2018 21:00 1.3 0.0 100.0
Thu, Nov 15, 2018 20:00 1.7 0.0 100.0
Thu, Nov 15, 2018 19:00 1.5 0.0 100.0
Thu, Nov 15, 2018 18:00 1.7 0.0 100.0
Thu, Nov 15, 2018 17:00 1.9 0.0 100.0
Thu, Nov 15, 2018 16:00 1.8 0.0 100.0
Thu, Nov 15, 2018 15:00 1.8 0.0 100.0
Thu, Nov 15, 2018 14:00 1.8 0.0 100.0
Thu, Nov 15, 2018 13:00 1.6 0.0 100.0
Thu, Nov 15, 2018 12:00 0.8 0.0 100.0
Thu, Nov 15, 2018 11:00 0.1 0.0 100.0
Thu, Nov 15, 2018 10:00 0.1 0.0 98.8
Thu, Nov 15, 2018 09:00 1.4 0.0 79.8
Thu, Nov 15, 2018 08:00 2.0 0.0 74.3
Thu, Nov 15, 2018 07:00 2.0 0.0 69.8
Thu, Nov 15, 2018 06:00 1.3 0.0 71.5
Thu, Nov 15, 2018 05:00 -0.4 0.0 78.8
Thu, Nov 15, 2018 04:00 -1.4 0.0 83.3
Thu, Nov 15, 2018 03:00 -2.1 0.0 83.0
Thu, Nov 15, 2018 02:00 -2.3 0.0 80.3
Thu, Nov 15, 2018 01:00 -2.7 0.0 79.0
Thu, Nov 15, 2018 00:00 -3.0 0.0 76.5
Wed, Nov 14, 2018 23:00 -3.1 0.0 74.8
Wed, Nov 14, 2018 22:00 -3.3 0.0 77.3
Wed, Nov 14, 2018 21:00 -3.4 0.0 79.5
Wed, Nov 14, 2018 20:00 -3.4 0.0 79.3
Wed, Nov 14, 2018 19:00 -3.0 0.0 79.0
Wed, Nov 14, 2018 18:00 -2.6 0.0 80.3
Wed, Nov 14, 2018 17:00 -2.0 0.0 72.8
Wed, Nov 14, 2018 16:00 -1.7 0.0 69.8
Wed, Nov 14, 2018 15:00 -1.4 0.0 68.3
Wed, Nov 14, 2018 14:00 -1.0 0.0 65.5
Wed, Nov 14, 2018 13:00 -0.9 0.0 62.0
Wed, Nov 14, 2018 12:00 -1.5 0.0 64.8
Wed, Nov 14, 2018 11:00 -2.2 0.0 67.0
Wed, Nov 14, 2018 10:00 -3.1 0.0 70.0
Wed, Nov 14, 2018 09:00 -4.1 0.0 70.0


asterix Register now to access more data! asterix